sensor_id;sensor_type;location;lat;lon;timestamp;temperature;humidity
40177;DHT22;31511;46.176;9.874;2023-04-03T00:01:59;10.40;99.90
40177;DHT22;31511;46.176;9.874;2023-04-03T00:04:44;10.30;99.90
40177;DHT22;31511;46.176;9.874;2023-04-03T00:07:29;10.30;99.90
40177;DHT22;31511;46.176;9.874;2023-04-03T00:10:14;10.00;99.90
40177;DHT22;31511;46.176;9.874;2023-04-03T00:13:00;10.00;99.90
40177;DHT22;31511;46.176;9.874;2023-04-03T00:15:44;10.10;99.90
40177;DHT22;31511;46.176;9.874;2023-04-03T00:18:29;10.30;99.90
40177;DHT22;31511;46.176;9.874;2023-04-03T00:21:14;10.40;99.90
40177;DHT22;31511;46.176;9.874;2023-04-03T00:23:59;10.50;99.90
40177;DHT22;31511;46.176;9.874;2023-04-03T00:26:43;10.30;99.90
40177;DHT22;31511;46.176;9.874;2023-04-03T00:29:29;9.90;99.90
40177;DHT22;31511;46.176;9.874;2023-04-03T00:32:14;10.00;99.90
40177;DHT22;31511;46.176;9.874;2023-04-03T00:34:59;9.70;99.90
40177;DHT22;31511;46.176;9.874;2023-04-03T00:37:44;9.40;99.90
40177;DHT22;31511;46.176;9.874;2023-04-03T00:40:32;9.60;99.90
40177;DHT22;31511;46.176;9.874;2023-04-03T00:43:18;10.00;99.90
40177;DHT22;31511;46.176;9.874;2023-04-03T00:46:03;10.00;99.90
40177;DHT22;31511;46.176;9.874;2023-04-03T00:48:47;10.00;99.90
40177;DHT22;31511;46.176;9.874;2023-04-03T00:51:32;10.00;99.90
40177;DHT22;31511;46.176;9.874;2023-04-03T00:54:16;9.80;99.90
40177;DHT22;31511;46.176;9.874;2023-04-03T00:57:00;9.50;99.90
40177;DHT22;31511;46.176;9.874;2023-04-03T00:59:46;9.50;99.90
40177;DHT22;31511;46.176;9.874;2023-04-03T01:02:32;9.50;99.90
40177;DHT22;31511;46.176;9.874;2023-04-03T01:05:17;9.60;99.90
40177;DHT22;31511;46.176;9.874;2023-04-03T01:08:03;9.70;99.90
40177;DHT22;31511;46.176;9.874;2023-04-03T01:10:47;9.80;99.90
40177;DHT22;31511;46.176;9.874;2023-04-03T01:13:32;9.80;99.90
40177;DHT22;31511;46.176;9.874;2023-04-03T01:16:16;9.50;99.90
40177;DHT22;31511;46.176;9.874;2023-04-03T01:19:01;9.40;99.90
40177;DHT22;31511;46.176;9.874;2023-04-03T01:21:53;9.40;99.90
40177;DHT22;31511;46.176;9.874;2023-04-03T01:24:40;9.30;99.90
40177;DHT22;31511;46.176;9.874;2023-04-03T01:27:26;9.20;99.90
40177;DHT22;31511;46.176;9.874;2023-04-03T01:30:12;9.50;99.90
40177;DHT22;31511;46.176;9.874;2023-04-03T01:32:57;9.40;99.90
40177;DHT22;31511;46.176;9.874;2023-04-03T01:35:41;9.50;99.90
40177;DHT22;31511;46.176;9.874;2023-04-03T01:38:26;9.50;99.90
40177;DHT22;31511;46.176;9.874;2023-04-03T01:41:12;9.60;99.90
40177;DHT22;31511;46.176;9.874;2023-04-03T01:43:57;9.40;99.90
40177;DHT22;31511;46.176;9.874;2023-04-03T01:46:41;9.30;99.90
40177;DHT22;31511;46.176;9.874;2023-04-03T01:49:27;9.10;99.90
40177;DHT22;31511;46.176;9.874;2023-04-03T01:52:12;9.00;99.90
40177;DHT22;31511;46.176;9.874;2023-04-03T01:54:57;8.80;99.90
40177;DHT22;31511;46.176;9.874;2023-04-03T01:57:42;8.90;99.90
40177;DHT22;31511;46.176;9.874;2023-04-03T02:00:26;8.90;99.90
40177;DHT22;31511;46.176;9.874;2023-04-03T02:03:10;8.90;99.90
40177;DHT22;31511;46.176;9.874;2023-04-03T02:05:55;9.10;99.90
40177;DHT22;31511;46.176;9.874;2023-04-03T02:08:39;9.30;99.90
40177;DHT22;31511;46.176;9.874;2023-04-03T02:11:25;9.30;99.90
40177;DHT22;31511;46.176;9.874;2023-04-03T02:14:11;9.20;99.90
40177;DHT22;31511;46.176;9.874;2023-04-03T02:16:56;9.30;99.90
40177;DHT22;31511;46.176;9.874;2023-04-03T02:19:40;8.80;99.90
40177;DHT22;31511;46.176;9.874;2023-04-03T02:22:26;8.50;99.90
40177;DHT22;31511;46.176;9.874;2023-04-03T02:25:11;8.50;99.90
40177;DHT22;31511;46.176;9.874;2023-04-03T02:28:00;8.80;99.90
40177;DHT22;31511;46.176;9.874;2023-04-03T02:30:44;8.90;99.90
40177;DHT22;31511;46.176;9.874;2023-04-03T02:33:30;8.70;99.90
40177;DHT22;31511;46.176;9.874;2023-04-03T02:36:15;8.80;99.90
40177;DHT22;31511;46.176;9.874;2023-04-03T02:39:03;9.00;99.90
40177;DHT22;31511;46.176;9.874;2023-04-03T02:41:47;9.00;99.90
40177;DHT22;31511;46.176;9.874;2023-04-03T02:44:33;9.00;99.90
40177;DHT22;31511;46.176;9.874;2023-04-03T02:47:17;8.70;99.90
40177;DHT22;31511;46.176;9.874;2023-04-03T02:50:02;8.40;99.90
40177;DHT22;31511;46.176;9.874;2023-04-03T02:52:46;8.40;99.90
40177;DHT22;31511;46.176;9.874;2023-04-03T02:55:31;8.50;99.90
40177;DHT22;31511;46.176;9.874;2023-04-03T02:58:15;8.60;99.90
40177;DHT22;31511;46.176;9.874;2023-04-03T03:01:01;8.70;99.90
40177;DHT22;31511;46.176;9.874;2023-04-03T03:03:45;8.50;99.90
40177;DHT22;31511;46.176;9.874;2023-04-03T03:06:30;8.20;99.90
40177;DHT22;31511;46.176;9.874;2023-04-03T03:09:14;8.30;99.90
40177;DHT22;31511;46.176;9.874;2023-04-03T03:11:59;8.40;99.90
40177;DHT22;31511;46.176;9.874;2023-04-03T03:14:43;8.60;99.90
40177;DHT22;31511;46.176;9.874;2023-04-03T03:17:28;8.50;99.90
40177;DHT22;31511;46.176;9.874;2023-04-03T03:20:14;8.60;99.90
40177;DHT22;31511;46.176;9.874;2023-04-03T03:22:59;8.60;99.90
40177;DHT22;31511;46.176;9.874;2023-04-03T03:25:43;8.50;99.90
40177;DHT22;31511;46.176;9.874;2023-04-03T03:28:29;8.20;99.90
40177;DHT22;31511;46.176;9.874;2023-04-03T03:31:14;8.20;99.90
40177;DHT22;31511;46.176;9.874;2023-04-03T03:34:00;8.30;99.90
40177;DHT22;31511;46.176;9.874;2023-04-03T03:36:45;8.00;99.90
40177;DHT22;31511;46.176;9.874;2023-04-03T03:39:30;8.40;99.90
40177;DHT22;31511;46.176;9.874;2023-04-03T03:42:14;8.30;99.90
40177;DHT22;31511;46.176;9.874;2023-04-03T03:45:00;8.40;99.90
40177;DHT22;31511;46.176;9.874;2023-04-03T03:47:44;8.30;99.90
40177;DHT22;31511;46.176;9.874;2023-04-03T03:50:29;7.90;99.90
40177;DHT22;31511;46.176;9.874;2023-04-03T03:53:14;8.00;99.90
40177;DHT22;31511;46.176;9.874;2023-04-03T03:55:59;7.80;99.90
40177;DHT22;31511;46.176;9.874;2023-04-03T03:58:43;8.00;99.90
40177;DHT22;31511;46.176;9.874;2023-04-03T04:01:28;7.60;99.90
40177;DHT22;31511;46.176;9.874;2023-04-03T04:04:13;7.50;99.90
40177;DHT22;31511;46.176;9.874;2023-04-03T04:06:58;7.80;99.90
40177;DHT22;31511;46.176;9.874;2023-04-03T04:09:44;7.60;99.90
40177;DHT22;31511;46.176;9.874;2023-04-03T04:12:29;7.50;99.90
40177;DHT22;31511;46.176;9.874;2023-04-03T04:15:14;7.70;99.90
40177;DHT22;31511;46.176;9.874;2023-04-03T04:17:59;7.80;99.90
40177;DHT22;31511;46.176;9.874;2023-04-03T04:20:44;7.70;99.90
40177;DHT22;31511;46.176;9.874;2023-04-03T04:23:29;7.80;99.90
40177;DHT22;31511;46.176;9.874;2023-04-03T04:26:13;7.80;99.90
40177;DHT22;31511;46.176;9.874;2023-04-03T04:28:57;7.70;99.90
40177;DHT22;31511;46.176;9.874;2023-04-03T04:31:41;7.90;99.90
40177;DHT22;31511;46.176;9.874;2023-04-03T04:34:27;7.90;99.90
40177;DHT22;31511;46.176;9.874;2023-04-03T04:37:13;7.70;99.90
40177;DHT22;31511;46.176;9.874;2023-04-03T04:39:57;7.90;99.90
40177;DHT22;31511;46.176;9.874;2023-04-03T04:42:41;7.90;99.90
40177;DHT22;31511;46.176;9.874;2023-04-03T04:45:27;7.60;99.90
40177;DHT22;31511;46.176;9.874;2023-04-03T04:48:13;7.60;99.90
40177;DHT22;31511;46.176;9.874;2023-04-03T04:50:58;7.70;99.90
40177;DHT22;31511;46.176;9.874;2023-04-03T04:53:43;7.70;99.90
40177;DHT22;31511;46.176;9.874;2023-04-03T04:56:28;7.50;99.90
40177;DHT22;31511;46.176;9.874;2023-04-03T04:59:13;7.50;99.90
40177;DHT22;31511;46.176;9.874;2023-04-03T05:01:58;7.40;99.90
40177;DHT22;31511;46.176;9.874;2023-04-03T05:04:43;7.60;99.90
40177;DHT22;31511;46.176;9.874;2023-04-03T05:07:29;7.70;99.90
40177;DHT22;31511;46.176;9.874;2023-04-03T05:10:13;7.90;99.90
40177;DHT22;31511;46.176;9.874;2023-04-03T05:12:58;7.90;99.90
40177;DHT22;31511;46.176;9.874;2023-04-03T05:15:43;7.90;99.90
40177;DHT22;31511;46.176;9.874;2023-04-03T05:18:28;8.00;99.90
40177;DHT22;31511;46.176;9.874;2023-04-03T05:21:13;8.00;99.90
40177;DHT22;31511;46.176;9.874;2023-04-03T05:23:59;7.90;99.90
40177;DHT22;31511;46.176;9.874;2023-04-03T05:26:46;7.80;99.90
40177;DHT22;31511;46.176;9.874;2023-04-03T05:29:30;7.80;99.90
40177;DHT22;31511;46.176;9.874;2023-04-03T05:32:15;7.80;99.90
40177;DHT22;31511;46.176;9.874;2023-04-03T05:35:01;8.10;99.90
40177;DHT22;31511;46.176;9.874;2023-04-03T05:37:45;8.10;99.90
40177;DHT22;31511;46.176;9.874;2023-04-03T05:40:30;7.80;99.90
40177;DHT22;31511;46.176;9.874;2023-04-03T05:43:14;7.80;99.90
40177;DHT22;31511;46.176;9.874;2023-04-03T05:45:59;7.90;99.90
40177;DHT22;31511;46.176;9.874;2023-04-03T05:48:44;7.90;99.90
40177;DHT22;31511;46.176;9.874;2023-04-03T05:51:30;7.90;99.90
40177;DHT22;31511;46.176;9.874;2023-04-03T05:54:20;7.70;99.90
40177;DHT22;31511;46.176;9.874;2023-04-03T05:57:06;7.70;99.90
40177;DHT22;31511;46.176;9.874;2023-04-03T05:59:51;7.70;99.90
40177;DHT22;31511;46.176;9.874;2023-04-03T06:02:35;8.10;99.90
40177;DHT22;31511;46.176;9.874;2023-04-03T06:05:21;8.10;99.90
40177;DHT22;31511;46.176;9.874;2023-04-03T06:08:06;7.90;99.90
40177;DHT22;31511;46.176;9.874;2023-04-03T06:10:52;7.80;99.90
40177;DHT22;31511;46.176;9.874;2023-04-03T06:13:37;7.80;99.90
40177;DHT22;31511;46.176;9.874;2023-04-03T06:16:23;8.10;99.90
40177;DHT22;31511;46.176;9.874;2023-04-03T06:19:09;8.30;99.90
40177;DHT22;31511;46.176;9.874;2023-04-03T06:21:54;8.00;99.90
40177;DHT22;31511;46.176;9.874;2023-04-03T06:24:38;8.00;99.90
40177;DHT22;31511;46.176;9.874;2023-04-03T06:27:23;8.20;99.90
40177;DHT22;31511;46.176;9.874;2023-04-03T06:30:09;8.10;99.90
40177;DHT22;31511;46.176;9.874;2023-04-03T06:32:53;8.30;99.90
40177;DHT22;31511;46.176;9.874;2023-04-03T06:35:37;8.70;99.90
40177;DHT22;31511;46.176;9.874;2023-04-03T06:38:23;8.70;99.90
40177;DHT22;31511;46.176;9.874;2023-04-03T06:41:09;8.70;99.90
40177;DHT22;31511;46.176;9.874;2023-04-03T06:43:53;8.60;99.90
40177;DHT22;31511;46.176;9.874;2023-04-03T06:46:40;8.90;99.90
40177;DHT22;31511;46.176;9.874;2023-04-03T06:49:25;8.90;99.90
40177;DHT22;31511;46.176;9.874;2023-04-03T06:52:12;9.00;99.90
40177;DHT22;31511;46.176;9.874;2023-04-03T06:54:56;9.10;99.90
40177;DHT22;31511;46.176;9.874;2023-04-03T06:57:43;9.20;99.90
40177;DHT22;31511;46.176;9.874;2023-04-03T07:00:27;9.20;99.90
40177;DHT22;31511;46.176;9.874;2023-04-03T07:03:11;9.30;99.90
40177;DHT22;31511;46.176;9.874;2023-04-03T07:05:56;9.50;99.90
40177;DHT22;31511;46.176;9.874;2023-04-03T07:08:41;9.50;99.90
40177;DHT22;31511;46.176;9.874;2023-04-03T07:11:27;9.60;99.90
40177;DHT22;31511;46.176;9.874;2023-04-03T07:14:12;9.80;99.90
40177;DHT22;31511;46.176;9.874;2023-04-03T07:16:57;9.90;99.90
40177;DHT22;31511;46.176;9.874;2023-04-03T07:19:42;9.90;99.90
40177;DHT22;31511;46.176;9.874;2023-04-03T07:22:28;9.90;99.90
40177;DHT22;31511;46.176;9.874;2023-04-03T07:25:13;10.00;99.90
40177;DHT22;31511;46.176;9.874;2023-04-03T07:27:58;10.10;99.90
40177;DHT22;31511;46.176;9.874;2023-04-03T07:30:46;10.20;99.90
40177;DHT22;31511;46.176;9.874;2023-04-03T07:33:31;10.20;99.90
40177;DHT22;31511;46.176;9.874;2023-04-03T07:36:16;10.40;99.90
40177;DHT22;31511;46.176;9.874;2023-04-03T07:39:01;10.50;99.90
40177;DHT22;31511;46.176;9.874;2023-04-03T07:41:45;10.60;99.90
40177;DHT22;31511;46.176;9.874;2023-04-03T07:44:29;10.70;99.90
40177;DHT22;31511;46.176;9.874;2023-04-03T07:47:14;10.80;99.90
40177;DHT22;31511;46.176;9.874;2023-04-03T07:50:01;11.00;99.90
40177;DHT22;31511;46.176;9.874;2023-04-03T07:52:45;11.10;99.90
40177;DHT22;31511;46.176;9.874;2023-04-03T07:55:31;11.20;99.90
40177;DHT22;31511;46.176;9.874;2023-04-03T07:58:16;11.40;99.90
40177;DHT22;31511;46.176;9.874;2023-04-03T08:01:01;11.50;99.90
40177;DHT22;31511;46.176;9.874;2023-04-03T08:03:45;11.50;99.90
40177;DHT22;31511;46.176;9.874;2023-04-03T08:06:30;11.70;99.90
40177;DHT22;31511;46.176;9.874;2023-04-03T08:09:16;11.70;99.90
40177;DHT22;31511;46.176;9.874;2023-04-03T08:12:00;11.80;99.90
40177;DHT22;31511;46.176;9.874;2023-04-03T08:14:45;12.00;99.90
40177;DHT22;31511;46.176;9.874;2023-04-03T08:17:29;12.00;99.90
40177;DHT22;31511;46.176;9.874;2023-04-03T08:20:14;12.10;99.90
40177;DHT22;31511;46.176;9.874;2023-04-03T08:22:58;12.20;99.90
40177;DHT22;31511;46.176;9.874;2023-04-03T08:25:43;12.30;99.90
40177;DHT22;31511;46.176;9.874;2023-04-03T08:28:29;12.40;99.90
40177;DHT22;31511;46.176;9.874;2023-04-03T08:31:15;12.60;99.90
40177;DHT22;31511;46.176;9.874;2023-04-03T08:34:01;12.70;99.90
40177;DHT22;31511;46.176;9.874;2023-04-03T08:36:45;12.90;99.90
40177;DHT22;31511;46.176;9.874;2023-04-03T08:39:30;13.10;99.90
40177;DHT22;31511;46.176;9.874;2023-04-03T08:48:15;13.30;99.90
40177;DHT22;31511;46.176;9.874;2023-04-03T08:51:05;13.40;99.90
40177;DHT22;31511;46.176;9.874;2023-04-03T08:54:01;13.60;99.90
40177;DHT22;31511;46.176;9.874;2023-04-03T08:56:47;13.60;99.90
40177;DHT22;31511;46.176;9.874;2023-04-03T08:59:35;13.50;99.90
40177;DHT22;31511;46.176;9.874;2023-04-03T09:02:32;13.70;99.90
40177;DHT22;31511;46.176;9.874;2023-04-03T09:11:40;14.30;99.90
40177;DHT22;31511;46.176;9.874;2023-04-03T09:14:33;14.40;99.90
40177;DHT22;31511;46.176;9.874;2023-04-03T09:20:10;14.60;99.90
40177;DHT22;31511;46.176;9.874;2023-04-03T09:22:57;14.60;99.90
40177;DHT22;31511;46.176;9.874;2023-04-03T09:25:42;14.60;99.90
40177;DHT22;31511;46.176;9.874;2023-04-03T09:28:28;15.00;99.90
40177;DHT22;31511;46.176;9.874;2023-04-03T09:31:17;15.20;99.90
40177;DHT22;31511;46.176;9.874;2023-04-03T09:34:05;15.40;99.90
40177;DHT22;31511;46.176;9.874;2023-04-03T09:36:51;15.40;99.90
40177;DHT22;31511;46.176;9.874;2023-04-03T09:39:49;15.50;99.90
40177;DHT22;31511;46.176;9.874;2023-04-03T09:42:35;15.50;99.90
40177;DHT22;31511;46.176;9.874;2023-04-03T09:45:25;15.70;99.90
40177;DHT22;31511;46.176;9.874;2023-04-03T09:51:01;15.90;99.90
40177;DHT22;31511;46.176;9.874;2023-04-03T09:53:47;16.10;99.90
40177;DHT22;31511;46.176;9.874;2023-04-03T09:56:31;16.10;99.90
40177;DHT22;31511;46.176;9.874;2023-04-03T09:59:16;16.20;99.90
40177;DHT22;31511;46.176;9.874;2023-04-03T10:02:17;16.50;99.90
40177;DHT22;31511;46.176;9.874;2023-04-03T10:05:05;17.30;99.90
40177;DHT22;31511;46.176;9.874;2023-04-03T10:11:05;24.10;99.90
40177;DHT22;31511;46.176;9.874;2023-04-03T10:14:10;24.50;99.90
40177;DHT22;31511;46.176;9.874;2023-04-03T10:23:21;27.50;99.90
40177;DHT22;31511;46.176;9.874;2023-04-03T10:26:16;29.30;99.90
40177;DHT22;31511;46.176;9.874;2023-04-03T10:31:59;31.10;99.90
40177;DHT22;31511;46.176;9.874;2023-04-03T10:34:45;30.00;99.90
40177;DHT22;31511;46.176;9.874;2023-04-03T10:37:33;32.80;99.90
40177;DHT22;31511;46.176;9.874;2023-04-03T10:48:51;33.50;99.90
40177;DHT22;31511;46.176;9.874;2023-04-03T10:51:47;34.00;99.90
40177;DHT22;31511;46.176;9.874;2023-04-03T10:54:36;34.10;99.90
40177;DHT22;31511;46.176;9.874;2023-04-03T10:57:23;29.60;99.90
40177;DHT22;31511;46.176;9.874;2023-04-03T11:00:17;24.60;99.90
40177;DHT22;31511;46.176;9.874;2023-04-03T11:03:16;29.30;99.90
40177;DHT22;31511;46.176;9.874;2023-04-03T11:06:07;30.50;99.90
40177;DHT22;31511;46.176;9.874;2023-04-03T11:08:54;27.20;99.90
40177;DHT22;31511;46.176;9.874;2023-04-03T11:11:40;25.70;99.90
40177;DHT22;31511;46.176;9.874;2023-04-03T11:17:23;25.40;99.90
40177;DHT22;31511;46.176;9.874;2023-04-03T11:22:59;23.20;99.90
40177;DHT22;31511;46.176;9.874;2023-04-03T11:25:44;24.30;99.90
40177;DHT22;31511;46.176;9.874;2023-04-03T11:28:30;25.10;99.90
40177;DHT22;31511;46.176;9.874;2023-04-03T11:37:00;32.40;99.90
40177;DHT22;31511;46.176;9.874;2023-04-03T11:39:51;33.40;99.90
40177;DHT22;31511;46.176;9.874;2023-04-03T11:42:39;33.40;99.90
40177;DHT22;31511;46.176;9.874;2023-04-03T12:09:04;29.50;99.90
40177;DHT22;31511;46.176;9.874;2023-04-03T12:15:51;33.70;99.90
40177;DHT22;31511;46.176;9.874;2023-04-03T12:19:24;34.40;99.90
40177;DHT22;31511;46.176;9.874;2023-04-03T12:24:23;27.90;99.90
40177;DHT22;31511;46.176;9.874;2023-04-03T12:27:33;27.20;99.90
40177;DHT22;31511;46.176;9.874;2023-04-03T12:30:24;26.30;99.90
40177;DHT22;31511;46.176;9.874;2023-04-03T12:33:17;26.00;99.90
40177;DHT22;31511;46.176;9.874;2023-04-03T12:36:09;23.40;99.90
40177;DHT22;31511;46.176;9.874;2023-04-03T12:39:10;22.80;99.90
40177;DHT22;31511;46.176;9.874;2023-04-03T12:42:02;23.80;99.90
40177;DHT22;31511;46.176;9.874;2023-04-03T12:45:36;23.10;99.90
40177;DHT22;31511;46.176;9.874;2023-04-03T12:47:54;22.80;99.90
40177;DHT22;31511;46.176;9.874;2023-04-03T12:50:39;22.10;99.90
40177;DHT22;31511;46.176;9.874;2023-04-03T12:53:25;21.80;99.90
40177;DHT22;31511;46.176;9.874;2023-04-03T12:56:25;22.30;99.90
40177;DHT22;31511;46.176;9.874;2023-04-03T12:59:25;23.10;99.90
40177;DHT22;31511;46.176;9.874;2023-04-03T13:02:25;22.70;99.90
40177;DHT22;31511;46.176;9.874;2023-04-03T13:05:14;23.20;99.90
40177;DHT22;31511;46.176;9.874;2023-04-03T13:08:02;22.40;99.90
40177;DHT22;31511;46.176;9.874;2023-04-03T13:10:52;22.80;99.90
40177;DHT22;31511;46.176;9.874;2023-04-03T13:13:37;21.90;99.90
40177;DHT22;31511;46.176;9.874;2023-04-03T13:16:24;21.10;99.90
40177;DHT22;31511;46.176;9.874;2023-04-03T13:19:16;21.50;99.90
40177;DHT22;31511;46.176;9.874;2023-04-03T13:22:02;21.40;99.90
40177;DHT22;31511;46.176;9.874;2023-04-03T13:24:49;21.80;99.90
40177;DHT22;31511;46.176;9.874;2023-04-03T13:27:34;22.90;99.90
40177;DHT22;31511;46.176;9.874;2023-04-03T13:30:26;23.80;99.90
40177;DHT22;31511;46.176;9.874;2023-04-03T13:33:23;26.90;99.90
40177;DHT22;31511;46.176;9.874;2023-04-03T13:36:23;27.10;99.90
40177;DHT22;31511;46.176;9.874;2023-04-03T13:41:56;29.60;99.90
40177;DHT22;31511;46.176;9.874;2023-04-03T13:44:41;29.70;99.90
40177;DHT22;31511;46.176;9.874;2023-04-03T13:47:27;28.60;99.90
40177;DHT22;31511;46.176;9.874;2023-04-03T13:50:23;28.40;99.90
40177;DHT22;31511;46.176;9.874;2023-04-03T13:53:13;25.70;99.90
40177;DHT22;31511;46.176;9.874;2023-04-03T14:04:49;25.10;99.90
40177;DHT22;31511;46.176;9.874;2023-04-03T14:07:34;26.40;99.90
40177;DHT22;31511;46.176;9.874;2023-04-03T14:10:19;25.20;99.90
40177;DHT22;31511;46.176;9.874;2023-04-03T14:13:04;26.10;99.90
40177;DHT22;31511;46.176;9.874;2023-04-03T14:15:48;27.20;99.90
40177;DHT22;31511;46.176;9.874;2023-04-03T14:18:34;24.80;99.90
40177;DHT22;31511;46.176;9.874;2023-04-03T14:21:21;24.80;99.90
40177;DHT22;31511;46.176;9.874;2023-04-03T14:24:06;24.30;99.90
40177;DHT22;31511;46.176;9.874;2023-04-03T14:26:51;24.70;99.90
40177;DHT22;31511;46.176;9.874;2023-04-03T14:29:36;24.80;99.90
40177;DHT22;31511;46.176;9.874;2023-04-03T14:32:22;24.70;99.90
40177;DHT22;31511;46.176;9.874;2023-04-03T14:35:07;24.00;99.90
40177;DHT22;31511;46.176;9.874;2023-04-03T14:37:53;23.30;99.90
40177;DHT22;31511;46.176;9.874;2023-04-03T14:40:37;23.00;99.90
40177;DHT22;31511;46.176;9.874;2023-04-03T14:43:23;23.50;99.90
40177;DHT22;31511;46.176;9.874;2023-04-03T14:46:13;23.40;99.90
40177;DHT22;31511;46.176;9.874;2023-04-03T14:48:58;23.50;99.90
40177;DHT22;31511;46.176;9.874;2023-04-03T14:51:43;23.30;99.90
40177;DHT22;31511;46.176;9.874;2023-04-03T14:54:28;22.30;99.90
40177;DHT22;31511;46.176;9.874;2023-04-03T14:57:14;22.20;99.90
40177;DHT22;31511;46.176;9.874;2023-04-03T15:00:00;22.60;99.90
40177;DHT22;31511;46.176;9.874;2023-04-03T15:02:46;22.10;99.90
40177;DHT22;31511;46.176;9.874;2023-04-03T15:05:31;22.40;99.90
40177;DHT22;31511;46.176;9.874;2023-04-03T15:08:23;22.20;99.90
40177;DHT22;31511;46.176;9.874;2023-04-03T15:11:10;21.90;99.90
40177;DHT22;31511;46.176;9.874;2023-04-03T15:13:55;21.50;99.90
40177;DHT22;31511;46.176;9.874;2023-04-03T15:16:39;22.00;99.90
40177;DHT22;31511;46.176;9.874;2023-04-03T15:19:24;21.90;99.90
40177;DHT22;31511;46.176;9.874;2023-04-03T15:22:14;22.00;99.90
40177;DHT22;31511;46.176;9.874;2023-04-03T15:24:59;22.00;99.90
40177;DHT22;31511;46.176;9.874;2023-04-03T15:27:43;21.70;99.90
40177;DHT22;31511;46.176;9.874;2023-04-03T15:30:28;21.80;99.90
40177;DHT22;31511;46.176;9.874;2023-04-03T15:33:12;21.20;99.90
40177;DHT22;31511;46.176;9.874;2023-04-03T15:35:57;21.30;99.90
40177;DHT22;31511;46.176;9.874;2023-04-03T15:38:41;21.30;99.90
40177;DHT22;31511;46.176;9.874;2023-04-03T15:41:27;21.10;99.90
40177;DHT22;31511;46.176;9.874;2023-04-03T15:44:13;21.10;99.90
40177;DHT22;31511;46.176;9.874;2023-04-03T15:46:57;21.00;99.90
40177;DHT22;31511;46.176;9.874;2023-04-03T15:49:42;21.30;99.90
40177;DHT22;31511;46.176;9.874;2023-04-03T15:52:27;21.40;99.90
40177;DHT22;31511;46.176;9.874;2023-04-03T15:55:12;21.00;99.90
40177;DHT22;31511;46.176;9.874;2023-04-03T15:57:57;20.90;99.90
40177;DHT22;31511;46.176;9.874;2023-04-03T16:00:42;20.30;99.90
40177;DHT22;31511;46.176;9.874;2023-04-03T16:03:27;20.50;99.90
40177;DHT22;31511;46.176;9.874;2023-04-03T16:06:17;20.20;99.90
40177;DHT22;31511;46.176;9.874;2023-04-03T16:09:02;20.10;99.90
40177;DHT22;31511;46.176;9.874;2023-04-03T16:11:47;19.90;99.90
40177;DHT22;31511;46.176;9.874;2023-04-03T16:14:31;19.40;99.90
40177;DHT22;31511;46.176;9.874;2023-04-03T16:17:15;19.60;99.90
40177;DHT22;31511;46.176;9.874;2023-04-03T16:20:00;19.50;99.90
40177;DHT22;31511;46.176;9.874;2023-04-03T16:22:45;19.60;99.90
40177;DHT22;31511;46.176;9.874;2023-04-03T16:25:29;19.40;99.90
40177;DHT22;31511;46.176;9.874;2023-04-03T16:28:15;19.40;99.90
40177;DHT22;31511;46.176;9.874;2023-04-03T16:31:01;19.20;99.90
40177;DHT22;31511;46.176;9.874;2023-04-03T16:33:46;18.90;99.90
40177;DHT22;31511;46.176;9.874;2023-04-03T16:36:31;18.70;99.90
40177;DHT22;31511;46.176;9.874;2023-04-03T16:39:15;18.60;99.90
40177;DHT22;31511;46.176;9.874;2023-04-03T16:41:59;18.30;99.90
40177;DHT22;31511;46.176;9.874;2023-04-03T16:44:43;18.20;99.90
40177;DHT22;31511;46.176;9.874;2023-04-03T16:47:29;18.20;99.90
40177;DHT22;31511;46.176;9.874;2023-04-03T16:50:14;18.10;99.90
40177;DHT22;31511;46.176;9.874;2023-04-03T16:52:59;18.20;99.90
40177;DHT22;31511;46.176;9.874;2023-04-03T16:55:43;18.00;99.90
40177;DHT22;31511;46.176;9.874;2023-04-03T16:58:28;18.20;99.90
40177;DHT22;31511;46.176;9.874;2023-04-03T17:01:14;18.00;99.90
40177;DHT22;31511;46.176;9.874;2023-04-03T17:03:59;17.80;99.90
40177;DHT22;31511;46.176;9.874;2023-04-03T17:06:44;17.50;99.90
40177;DHT22;31511;46.176;9.874;2023-04-03T17:09:28;17.40;99.90
40177;DHT22;31511;46.176;9.874;2023-04-03T17:12:12;17.40;99.90
40177;DHT22;31511;46.176;9.874;2023-04-03T17:14:57;17.20;99.90
40177;DHT22;31511;46.176;9.874;2023-04-03T17:17:41;17.10;99.90
40177;DHT22;31511;46.176;9.874;2023-04-03T17:20:27;17.10;99.90
40177;DHT22;31511;46.176;9.874;2023-04-03T17:23:12;17.10;99.90
40177;DHT22;31511;46.176;9.874;2023-04-03T17:25:57;17.00;99.90
40177;DHT22;31511;46.176;9.874;2023-04-03T17:28:41;16.90;99.90
40177;DHT22;31511;46.176;9.874;2023-04-03T17:31:28;16.80;99.90
40177;DHT22;31511;46.176;9.874;2023-04-03T17:34:14;16.80;99.90
40177;DHT22;31511;46.176;9.874;2023-04-03T17:36:59;16.80;99.90
40177;DHT22;31511;46.176;9.874;2023-04-03T17:39:43;16.70;99.90
40177;DHT22;31511;46.176;9.874;2023-04-03T17:42:30;16.60;99.90
40177;DHT22;31511;46.176;9.874;2023-04-03T17:45:17;16.50;99.90
40177;DHT22;31511;46.176;9.874;2023-04-03T17:48:01;16.40;99.90
40177;DHT22;31511;46.176;9.874;2023-04-03T17:50:46;16.40;99.90
40177;DHT22;31511;46.176;9.874;2023-04-03T17:53:30;16.30;99.90
40177;DHT22;31511;46.176;9.874;2023-04-03T17:56:16;16.00;99.90
40177;DHT22;31511;46.176;9.874;2023-04-03T17:59:01;16.00;99.90
40177;DHT22;31511;46.176;9.874;2023-04-03T18:01:45;16.00;99.90
40177;DHT22;31511;46.176;9.874;2023-04-03T18:04:30;15.80;99.90
40177;DHT22;31511;46.176;9.874;2023-04-03T18:07:15;15.70;99.90
40177;DHT22;31511;46.176;9.874;2023-04-03T18:10:00;15.70;99.90
40177;DHT22;31511;46.176;9.874;2023-04-03T18:12:47;15.60;99.90
40177;DHT22;31511;46.176;9.874;2023-04-03T18:15:32;15.50;99.90
40177;DHT22;31511;46.176;9.874;2023-04-03T18:18:16;15.40;99.90
40177;DHT22;31511;46.176;9.874;2023-04-03T18:21:00;15.30;99.90
40177;DHT22;31511;46.176;9.874;2023-04-03T18:23:49;15.20;99.90
40177;DHT22;31511;46.176;9.874;2023-04-03T18:26:33;15.10;99.90
40177;DHT22;31511;46.176;9.874;2023-04-03T18:29:18;15.00;99.90
40177;DHT22;31511;46.176;9.874;2023-04-03T18:32:03;15.00;99.90
40177;DHT22;31511;46.176;9.874;2023-04-03T18:34:49;14.80;99.90
40177;DHT22;31511;46.176;9.874;2023-04-03T18:37:33;14.90;99.90
40177;DHT22;31511;46.176;9.874;2023-04-03T18:40:18;14.70;99.90
40177;DHT22;31511;46.176;9.874;2023-04-03T18:43:02;14.70;99.90
40177;DHT22;31511;46.176;9.874;2023-04-03T18:45:46;14.60;99.90
40177;DHT22;31511;46.176;9.874;2023-04-03T18:48:34;14.60;99.90
40177;DHT22;31511;46.176;9.874;2023-04-03T18:51:19;14.40;99.90
40177;DHT22;31511;46.176;9.874;2023-04-03T18:54:07;14.30;99.90
40177;DHT22;31511;46.176;9.874;2023-04-03T18:56:52;14.30;99.90
40177;DHT22;31511;46.176;9.874;2023-04-03T18:59:36;14.10;99.90
40177;DHT22;31511;46.176;9.874;2023-04-03T19:02:21;14.10;99.90
40177;DHT22;31511;46.176;9.874;2023-04-03T19:05:10;14.10;99.90
40177;DHT22;31511;46.176;9.874;2023-04-03T19:07:56;14.00;99.90
40177;DHT22;31511;46.176;9.874;2023-04-03T19:10:40;13.90;99.90